createdAt,value
2022-11-19T00:01:32.914Z,-2.67
2022-11-19T00:04:07.955Z,-2.60
2022-11-19T00:06:40.347Z,-2.56
2022-11-19T00:09:14.511Z,-2.55
2022-11-19T00:12:04.354Z,-2.61
2022-11-19T00:14:36.645Z,-2.64
2022-11-19T00:17:11.555Z,-2.62
2022-11-19T00:19:43.902Z,-2.63
2022-11-19T00:22:16.264Z,-2.62
2022-11-19T00:24:48.417Z,-2.69
2022-11-19T00:27:20.562Z,-2.80
2022-11-19T00:29:55.298Z,-2.88
2022-11-19T00:32:27.562Z,-2.84
2022-11-19T00:35:00.001Z,-2.82
2022-11-19T00:37:34.749Z,-2.85
2022-11-19T00:40:08.982Z,-2.89
2022-11-19T00:43:01.895Z,-2.90
2022-11-19T00:45:36.258Z,-2.91
2022-11-19T00:48:08.753Z,-2.92
2022-11-19T00:50:40.875Z,-2.90
2022-11-19T00:53:13.039Z,-2.86
2022-11-19T00:55:45.182Z,-2.84
2022-11-19T00:58:17.734Z,-2.84
2022-11-19T01:00:51.537Z,-2.81
2022-11-19T01:03:24.932Z,-2.81
2022-11-19T01:05:57.133Z,-2.81
2022-11-19T01:08:29.849Z,-2.80
2022-11-19T01:11:09.486Z,-2.82
2022-11-19T01:13:41.727Z,-2.83
2022-11-19T01:16:16.068Z,-2.82
2022-11-19T01:18:49.829Z,-2.78
2022-11-19T01:21:23.902Z,-2.76
2022-11-19T01:23:56.645Z,-2.78
2022-11-19T01:26:29.759Z,-2.84
2022-11-19T01:29:03.748Z,-2.96
2022-11-19T01:31:36.047Z,-3.08
2022-11-19T01:34:08.340Z,-3.14
2022-11-19T01:36:40.432Z,-3.16
2022-11-19T01:39:12.648Z,-3.24
2022-11-19T01:41:44.803Z,-3.37
2022-11-19T01:44:55.908Z,-3.41
2022-11-19T01:47:28.501Z,-3.40
2022-11-19T01:50:02.946Z,-3.36
2022-11-19T01:52:35.172Z,-3.35
2022-11-19T01:55:11.383Z,-3.37
2022-11-19T01:57:43.993Z,-3.37
2022-11-19T02:00:18.408Z,-3.39
2022-11-19T02:02:50.972Z,-3.42
2022-11-19T02:05:26.313Z,-3.43
2022-11-19T02:08:00.035Z,-3.47
2022-11-19T02:10:48.385Z,-3.53
2022-11-19T02:13:31.251Z,-3.57
2022-11-19T02:16:16.434Z,-3.54
2022-11-19T02:18:52.656Z,-3.49
2022-11-19T02:21:37.209Z,-3.49
2022-11-19T02:24:41.347Z,-3.50
2022-11-19T02:27:48.104Z,-3.60
2022-11-19T02:30:20.973Z,-3.64
2022-11-19T02:33:03.407Z,-3.61
2022-11-19T02:35:47.895Z,-3.54
2022-11-19T02:38:30.534Z,-3.49
2022-11-19T02:41:28.324Z,-3.50
2022-11-19T02:44:25.555Z,-3.55
2022-11-19T02:47:00.837Z,-3.50
2022-11-19T02:49:39.436Z,-3.43
2022-11-19T02:52:18.093Z,-3.37
2022-11-19T02:54:50.512Z,-3.37
2022-11-19T02:57:27.867Z,-3.36
2022-11-19T03:00:23.778Z,-3.40
2022-11-19T03:03:27.374Z,-3.39
2022-11-19T03:06:03.485Z,-3.36
2022-11-19T03:08:36.474Z,-3.30
2022-11-19T03:11:17.393Z,-3.25
2022-11-19T03:14:14.780Z,-3.14
2022-11-19T03:16:55.757Z,-3.09
2022-11-19T03:19:38.563Z,-3.05
2022-11-19T03:22:17.529Z,-3.08
2022-11-19T03:24:57.768Z,-3.10
2022-11-19T03:27:37.082Z,-3.05
2022-11-19T03:30:13.423Z,-2.98
2022-11-19T03:32:48.869Z,-2.97
2022-11-19T03:35:32.846Z,-2.94
2022-11-19T03:38:11.761Z,-2.94
2022-11-19T03:40:47.865Z,-2.97
2022-11-19T03:43:25.496Z,-2.90
2022-11-19T03:46:00.708Z,-2.93
2022-11-19T03:48:34.592Z,-2.95
2022-11-19T03:51:15.632Z,-2.89
2022-11-19T03:53:49.847Z,-2.79
2022-11-19T03:56:25.526Z,-2.73
2022-11-19T03:59:00.158Z,-2.68
2022-11-19T04:01:33.724Z,-2.65
2022-11-19T04:04:24.964Z,-2.66
2022-11-19T04:06:57.176Z,-2.68
2022-11-19T04:09:29.548Z,-2.65
2022-11-19T04:12:01.883Z,-2.58
2022-11-19T04:14:37.107Z,-2.48
2022-11-19T04:17:09.532Z,-2.41
2022-11-19T04:19:41.658Z,-2.39
2022-11-19T04:22:13.993Z,-2.33
2022-11-19T04:24:46.078Z,-2.34
2022-11-19T04:27:18.283Z,-2.31
2022-11-19T04:29:53.211Z,-2.29
2022-11-19T04:32:25.365Z,-2.35
2022-11-19T04:35:03.160Z,-2.40
2022-11-19T04:37:35.705Z,-2.44
2022-11-19T04:40:25.237Z,-2.45
2022-11-19T04:42:57.351Z,-2.48
2022-11-19T04:45:29.751Z,-2.55
2022-11-19T04:48:01.895Z,-2.53
2022-11-19T04:50:36.962Z,-2.49
2022-11-19T04:53:10.509Z,-2.48
2022-11-19T04:55:45.393Z,-2.43
2022-11-19T04:58:17.887Z,-2.37
2022-11-19T05:00:52.960Z,-2.28
2022-11-19T05:03:25.199Z,-2.21
2022-11-19T05:05:57.708Z,-2.10
2022-11-19T05:08:30.034Z,-2.02
2022-11-19T05:11:02.145Z,-1.99
2022-11-19T05:13:34.488Z,-1.99
2022-11-19T05:16:07.621Z,-1.94
2022-11-19T05:18:40.066Z,-1.88
2022-11-19T05:21:12.225Z,-1.83
2022-11-19T05:23:47.415Z,-1.78
2022-11-19T05:26:45.608Z,-1.79
2022-11-19T05:32:44.300Z,-1.90
2022-11-19T05:35:28.074Z,-1.99
2022-11-19T05:38:00.606Z,-2.02
2022-11-19T05:40:32.842Z,-2.09
2022-11-19T05:43:09.574Z,-2.09
2022-11-19T05:45:55.354Z,-2.16
2022-11-19T05:48:27.526Z,-2.14
2022-11-19T05:51:01.515Z,-2.14
2022-11-19T05:53:47.612Z,-2.19
2022-11-19T05:56:19.855Z,-2.21
2022-11-19T05:58:51.965Z,-2.23
2022-11-19T06:01:28.945Z,-2.26
2022-11-19T06:04:02.436Z,-2.28
2022-11-19T06:06:34.606Z,-2.28
2022-11-19T06:09:07.016Z,-2.22
2022-11-19T06:11:50.186Z,-2.09
2022-11-19T06:14:24.218Z,-2.02
2022-11-19T06:17:00.875Z,-2.10
2022-11-19T06:19:33.493Z,-2.19
2022-11-19T06:22:06.202Z,-2.14
2022-11-19T06:24:38.300Z,-2.12
2022-11-19T06:27:10.466Z,-2.12
2022-11-19T06:29:43.581Z,-2.16
2022-11-19T06:32:15.821Z,-2.12
2022-11-19T06:34:47.990Z,-2.07
2022-11-19T06:37:20.244Z,-1.99
2022-11-19T06:39:52.447Z,-1.90
2022-11-19T06:42:37.114Z,-1.83
2022-11-19T06:45:15.333Z,-1.80
2022-11-19T06:47:50.138Z,-1.81
2022-11-19T06:50:28.585Z,-1.78
2022-11-19T06:53:00.763Z,-1.74
2022-11-19T06:55:35.321Z,-1.75
2022-11-19T06:58:09.139Z,-1.83
2022-11-19T07:00:41.282Z,-1.85
2022-11-19T07:03:13.739Z,-1.81
2022-11-19T07:05:46.122Z,-1.75
2022-11-19T07:08:19.110Z,-1.72
2022-11-19T07:10:51.924Z,-1.67
2022-11-19T07:13:24.056Z,-1.61
2022-11-19T07:15:56.787Z,-1.63
2022-11-19T07:18:29.054Z,-1.62
2022-11-19T07:21:01.123Z,-1.58
2022-11-19T07:23:33.270Z,-1.58
2022-11-19T07:26:05.490Z,-1.62
2022-11-19T07:28:38.145Z,-1.64
2022-11-19T07:31:11.040Z,-1.66
2022-11-19T07:33:43.415Z,-1.64
2022-11-19T07:36:18.543Z,-1.60
2022-11-19T07:38:52.464Z,-1.60
2022-11-19T07:41:42.472Z,-1.59
2022-11-19T07:44:14.542Z,-1.55
2022-11-19T07:46:47.347Z,-1.47
2022-11-19T07:49:22.045Z,-1.36
2022-11-19T07:51:54.348Z,-1.32
2022-11-19T07:54:26.448Z,-1.30
2022-11-19T07:56:58.604Z,-1.28
2022-11-19T07:59:30.828Z,-1.27
2022-11-19T08:02:03.256Z,-1.25
2022-11-19T08:04:56.985Z,-1.22
2022-11-19T08:07:38.058Z,-1.27
2022-11-19T08:10:12.046Z,-1.27
2022-11-19T08:13:03.586Z,-1.23
2022-11-19T08:15:36.909Z,-1.19
2022-11-19T08:18:13.849Z,-1.14
2022-11-19T08:20:48.463Z,-1.10
2022-11-19T08:23:20.720Z,-1.04
2022-11-19T08:25:53.069Z,-0.99
2022-11-19T08:28:41.590Z,-0.95
2022-11-19T08:31:13.979Z,-0.93
2022-11-19T08:33:46.349Z,-0.84
2022-11-19T08:36:18.605Z,-0.82
2022-11-19T08:38:54.030Z,-0.86
2022-11-19T08:41:53.485Z,-0.86
2022-11-19T08:44:25.700Z,-0.80
2022-11-19T08:46:58.507Z,-0.78
2022-11-19T08:49:30.550Z,-0.79
2022-11-19T08:52:02.620Z,-0.75
2022-11-19T08:54:34.753Z,-0.69
2022-11-19T08:57:09.631Z,-0.70
2022-11-19T08:59:41.704Z,-0.62
2022-11-19T09:02:14.441Z,-0.54
2022-11-19T09:04:46.865Z,-0.54
2022-11-19T09:07:19.399Z,-0.51
2022-11-19T09:09:51.685Z,-0.53
2022-11-19T09:12:23.802Z,-0.55
2022-11-19T09:14:55.902Z,-0.54
2022-11-19T09:17:28.168Z,-0.56
2022-11-19T09:20:00.362Z,-0.59
2022-11-19T09:22:36.305Z,-0.53
2022-11-19T09:25:13.069Z,-0.45
2022-11-19T09:27:45.165Z,-0.49
2022-11-19T09:30:18.095Z,-0.47
2022-11-19T09:32:50.244Z,-0.44
2022-11-19T09:35:24.039Z,-0.35
2022-11-19T09:37:56.267Z,-0.28
2022-11-19T09:40:28.350Z,-0.26
2022-11-19T09:43:14.966Z,-0.30
2022-11-19T09:45:58.229Z,-0.26
2022-11-19T09:48:37.011Z,-0.16
2022-11-19T09:51:14.209Z,-0.05
2022-11-19T09:53:52.671Z,0.02
2022-11-19T09:56:31.995Z,0.02
2022-11-19T09:59:09.109Z,0.00
2022-11-19T10:01:41.419Z,0.08
2022-11-19T10:04:14.372Z,0.20
2022-11-19T10:06:56.537Z,0.24
2022-11-19T10:09:51.079Z,0.28
2022-11-19T10:12:37.384Z,0.23
2022-11-19T10:26:40.968Z,0.40
2022-11-19T10:29:36.112Z,0.32
2022-11-19T10:32:27.244Z,0.30
2022-11-19T10:35:04.404Z,0.31
2022-11-19T10:37:40.380Z,0.29
2022-11-19T10:40:16.661Z,0.31
2022-11-19T10:42:53.790Z,0.35
2022-11-19T10:45:30.179Z,0.34
2022-11-19T10:48:09.591Z,0.30
2022-11-19T10:50:42.635Z,0.28
2022-11-19T10:53:22.463Z,0.24
2022-11-19T10:55:58.780Z,0.20
2022-11-19T10:58:35.096Z,0.23
2022-11-19T11:01:17.403Z,0.24
2022-11-19T11:03:56.226Z,0.23
2022-11-19T11:06:28.531Z,0.23
2022-11-19T11:09:00.639Z,0.23
2022-11-19T11:11:48.875Z,0.19
2022-11-19T11:14:56.876Z,0.25
2022-11-19T11:17:32.209Z,0.27
2022-11-19T11:20:06.827Z,0.29
2022-11-19T11:22:39.723Z,0.30
2022-11-19T11:25:23.392Z,0.33
2022-11-19T11:28:08.834Z,0.31
2022-11-19T11:30:52.509Z,0.29
2022-11-19T11:33:37.770Z,0.28
2022-11-19T11:36:15.863Z,0.31
2022-11-19T11:38:50.101Z,0.31
2022-11-19T11:44:23.519Z,0.27
2022-11-19T11:46:58.191Z,0.26
2022-11-19T11:49:35.033Z,0.22
2022-11-19T11:52:19.902Z,0.24
2022-11-19T11:55:01.186Z,0.26
2022-11-19T11:57:37.206Z,0.29
2022-11-19T12:00:33.397Z,0.29
2022-11-19T12:03:07.901Z,0.31
2022-11-19T12:05:58.821Z,0.33
2022-11-19T12:08:50.103Z,0.26
2022-11-19T12:11:49.816Z,0.12
2022-11-19T12:14:26.772Z,0.01
2022-11-19T12:17:31.070Z,-0.03
2022-11-19T12:20:21.498Z,-0.10
2022-11-19T12:23:08.227Z,-0.15
2022-11-19T12:25:48.840Z,-0.16
2022-11-19T12:28:47.332Z,-0.18
2022-11-19T12:31:33.688Z,-0.23
2022-11-19T12:34:26.135Z,-0.24
2022-11-19T12:37:09.250Z,-0.20
2022-11-19T12:39:53.260Z,-0.13
2022-11-19T12:42:42.952Z,-0.10
2022-11-19T12:45:26.954Z,-0.05
2022-11-19T12:48:23.891Z,-0.01
2022-11-19T12:51:02.032Z,-0.03
2022-11-19T12:53:53.033Z,-0.03
2022-11-19T12:56:36.845Z,-0.05
2022-11-19T12:59:23.184Z,-0.06
2022-11-19T13:02:01.002Z,-0.19
2022-11-19T13:04:40.562Z,-0.24
2022-11-19T13:07:17.693Z,-0.26
2022-11-19T13:09:54.434Z,-0.28
2022-11-19T13:12:37.552Z,-0.28
2022-11-19T13:15:18.503Z,-0.25
2022-11-19T13:17:55.399Z,-0.25
2022-11-19T13:20:35.094Z,-0.25
2022-11-19T13:23:09.250Z,-0.36
2022-11-19T13:25:45.365Z,-0.40
2022-11-19T13:28:25.006Z,-0.36
2022-11-19T13:31:04.104Z,-0.28
2022-11-19T13:33:44.735Z,-0.27
2022-11-19T13:36:26.332Z,-0.25
2022-11-19T13:39:05.882Z,-0.21
2022-11-19T13:42:02.473Z,-0.23
2022-11-19T13:44:41.609Z,-0.38
2022-11-19T13:47:21.344Z,-0.43
2022-11-19T13:49:58.012Z,-0.44
2022-11-19T13:52:35.269Z,-0.46
2022-11-19T13:55:31.687Z,-0.44
2022-11-19T13:58:20.058Z,-0.44
2022-11-19T14:01:15.813Z,-0.50
2022-11-19T14:07:35.709Z,-0.49
2022-11-19T14:10:17.419Z,-0.50
2022-11-19T14:13:15.845Z,-0.54
2022-11-19T14:16:16.426Z,-0.69
2022-11-19T14:19:08.554Z,-0.64
2022-11-19T14:22:24.202Z,-0.60
2022-11-19T14:25:31.591Z,-0.66
2022-11-19T14:28:43.476Z,-0.68
2022-11-19T14:31:39.190Z,-0.68
2022-11-19T14:34:28.696Z,-0.67
2022-11-19T14:37:04.571Z,-0.63
2022-11-19T14:39:45.017Z,-0.67
2022-11-19T14:42:19.151Z,-0.66
2022-11-19T14:45:29.369Z,-0.63
2022-11-19T14:48:13.903Z,-0.61
2022-11-19T14:51:19.079Z,-0.57
2022-11-19T14:53:54.125Z,-0.49
2022-11-19T14:56:33.695Z,-0.43
2022-11-19T14:59:22.372Z,-0.49
2022-11-19T15:02:41.113Z,-0.55
2022-11-19T15:05:29.205Z,-0.57
2022-11-19T15:08:31.104Z,-0.59
2022-11-19T15:11:11.695Z,-0.62
2022-11-19T15:13:44.818Z,-0.64
2022-11-19T15:16:21.054Z,-0.63
2022-11-19T15:19:30.896Z,-0.61
2022-11-19T15:22:29.313Z,-0.76
2022-11-19T15:25:24.266Z,-0.79
2022-11-19T15:28:05.531Z,-0.74
2022-11-19T15:31:04.874Z,-0.66
2022-11-19T15:33:59.028Z,-0.64
2022-11-19T15:36:34.801Z,-0.68
2022-11-19T15:39:16.292Z,-0.66
2022-11-19T15:42:31.915Z,-0.74
2022-11-19T15:45:13.500Z,-0.75
2022-11-19T15:47:50.146Z,-0.72
2022-11-19T15:50:25.001Z,-0.68
2022-11-19T15:53:15.307Z,-0.68
2022-11-19T15:55:56.077Z,-0.71
2022-11-19T15:58:35.612Z,-0.71
2022-11-19T16:01:09.881Z,-0.68
2022-11-19T16:03:42.636Z,-0.66
2022-11-19T16:06:21.108Z,-0.68
2022-11-19T16:08:56.940Z,-0.77
2022-11-19T16:11:50.998Z,-0.82
2022-11-19T16:14:44.052Z,-0.83
2022-11-19T16:17:39.766Z,-0.81
2022-11-19T16:20:23.897Z,-0.83
2022-11-19T16:23:03.925Z,-0.86
2022-11-19T16:25:38.816Z,-0.82
2022-11-19T16:28:15.411Z,-0.77
2022-11-19T16:30:52.095Z,-0.78
2022-11-19T16:33:29.506Z,-0.89
2022-11-19T16:36:15.846Z,-0.88
2022-11-19T16:38:49.897Z,-0.85
2022-11-19T16:41:42.149Z,-0.81
2022-11-19T16:44:18.489Z,-0.82
2022-11-19T16:46:51.525Z,-0.81
2022-11-19T16:49:34.227Z,-0.82
2022-11-19T16:52:07.785Z,-0.83
2022-11-19T16:54:49.740Z,-0.80
2022-11-19T16:57:24.311Z,-0.78
2022-11-19T17:00:01.196Z,-0.75
2022-11-19T17:02:39.061Z,-0.70
2022-11-19T17:05:14.442Z,-0.67
2022-11-19T17:07:50.837Z,-0.66
2022-11-19T17:10:31.639Z,-0.65
2022-11-19T17:13:05.920Z,-0.69
2022-11-19T17:15:42.538Z,-0.74
2022-11-19T17:18:20.823Z,-0.72
2022-11-19T17:20:57.781Z,-0.73
2022-11-19T17:23:32.229Z,-0.71
2022-11-19T17:26:07.817Z,-0.68
2022-11-19T17:28:47.349Z,-0.67
2022-11-19T17:31:22.933Z,-0.68
2022-11-19T17:33:57.953Z,-0.65
2022-11-19T17:36:33.197Z,-0.74
2022-11-19T17:39:09.819Z,-0.70
2022-11-19T17:42:01.602Z,-0.68
2022-11-19T17:44:39.374Z,-0.65
2022-11-19T17:47:22.199Z,-0.63
2022-11-19T17:49:55.112Z,-0.61
2022-11-19T17:52:31.524Z,-0.62
2022-11-19T17:55:17.625Z,-0.61
2022-11-19T17:57:52.121Z,-0.64
2022-11-19T18:00:24.353Z,-0.66
2022-11-19T18:03:01.768Z,-0.65
2022-11-19T18:05:38.067Z,-0.66
2022-11-19T18:08:10.255Z,-0.64
2022-11-19T18:10:48.100Z,-0.63
2022-11-19T18:13:25.134Z,-0.62
2022-11-19T18:15:57.773Z,-0.60
2022-11-19T18:18:30.015Z,-0.63
2022-11-19T18:21:02.488Z,-0.58
2022-11-19T18:23:34.749Z,-0.56
2022-11-19T18:26:12.234Z,-0.56
2022-11-19T18:28:48.826Z,-0.61
2022-11-19T18:31:26.193Z,-0.60
2022-11-19T18:33:58.924Z,-0.63
2022-11-19T18:36:31.292Z,-0.62
2022-11-19T18:39:03.495Z,-0.58
2022-11-19T18:41:35.757Z,-0.53
2022-11-19T18:44:29.984Z,-0.57
2022-11-19T18:47:03.805Z,-0.55
2022-11-19T18:49:39.606Z,-0.56
2022-11-19T18:52:15.673Z,-0.59
2022-11-19T18:54:48.056Z,-0.58
2022-11-19T18:57:20.437Z,-0.50
2022-11-19T18:59:52.896Z,-0.50
2022-11-19T19:02:28.048Z,-0.51
2022-11-19T19:05:00.315Z,-0.44
2022-11-19T19:07:32.797Z,-0.37
2022-11-19T19:10:05.524Z,-0.29
2022-11-19T19:12:37.700Z,-0.29
2022-11-19T19:15:11.732Z,-0.29
2022-11-19T19:17:43.967Z,-0.28
2022-11-19T19:20:17.380Z,-0.25
2022-11-19T19:22:49.804Z,-0.21
2022-11-19T19:25:21.960Z,-0.18
2022-11-19T19:27:54.116Z,-0.23
2022-11-19T19:30:31.703Z,-0.23
2022-11-19T19:33:06.868Z,-0.17
2022-11-19T19:35:41.560Z,-0.14
2022-11-19T19:38:16.319Z,-0.25
2022-11-19T19:40:48.902Z,-0.26
2022-11-19T19:43:21.501Z,-0.26
2022-11-19T19:45:53.699Z,-0.24
2022-11-19T19:48:25.897Z,-0.18
2022-11-19T19:50:58.491Z,-0.16
2022-11-19T19:53:31.227Z,-0.17
2022-11-19T19:56:09.307Z,-0.20
2022-11-19T19:58:45.332Z,-0.20
2022-11-19T20:01:22.589Z,-0.17
2022-11-19T20:04:03.751Z,-0.23
2022-11-19T20:06:52.477Z,-0.29
2022-11-19T20:09:41.322Z,-0.34
2022-11-19T20:12:13.748Z,-0.35
2022-11-19T20:14:46.408Z,-0.34
2022-11-19T20:17:19.315Z,-0.31
2022-11-19T20:19:51.709Z,-0.28
2022-11-19T20:22:24.314Z,-0.20
2022-11-19T20:24:57.057Z,-0.14
2022-11-19T20:27:29.521Z,-0.17
2022-11-19T20:30:05.918Z,-0.14
2022-11-19T20:32:38.308Z,-0.18
2022-11-19T20:35:11.295Z,-0.19
2022-11-19T20:37:43.925Z,-0.23
2022-11-19T20:40:18.133Z,-0.18
2022-11-19T20:43:07.917Z,-0.14
2022-11-19T20:45:40.218Z,-0.13
2022-11-19T20:48:13.398Z,-0.07
2022-11-19T20:50:45.613Z,0.01
2022-11-19T20:53:18.000Z,0.06
2022-11-19T20:56:05.067Z,0.03
2022-11-19T20:58:38.049Z,-0.07
2022-11-19T21:01:11.706Z,-0.07
2022-11-19T21:03:44.081Z,-0.00
2022-11-19T21:06:16.378Z,0.06
2022-11-19T21:08:48.971Z,0.10
2022-11-19T21:11:21.459Z,0.08
2022-11-19T21:13:53.926Z,0.10
2022-11-19T21:16:29.008Z,0.07
2022-11-19T21:19:01.692Z,0.07
2022-11-19T21:21:34.685Z,0.09
2022-11-19T21:24:10.380Z,0.14
2022-11-19T21:26:42.647Z,0.14
2022-11-19T21:29:15.327Z,0.10
2022-11-19T21:31:49.175Z,0.02
2022-11-19T21:34:22.337Z,-0.01
2022-11-19T21:36:55.473Z,-0.06
2022-11-19T21:39:30.237Z,-0.10
2022-11-19T21:42:02.406Z,-0.07
2022-11-19T21:44:34.604Z,-0.06
2022-11-19T21:47:08.003Z,-0.03
2022-11-19T21:49:40.333Z,0.02
2022-11-19T21:52:12.686Z,0.05
2022-11-19T21:54:44.781Z,0.02
2022-11-19T21:57:17.123Z,0.06
2022-11-19T21:59:49.589Z,0.00
2022-11-19T22:02:21.827Z,-0.01
2022-11-19T22:04:54.631Z,0.04
2022-11-19T22:07:26.812Z,0.04
2022-11-19T22:09:58.990Z,0.10
2022-11-19T22:12:31.821Z,0.15
2022-11-19T22:15:04.522Z,0.16
2022-11-19T22:17:37.138Z,0.19
2022-11-19T22:20:11.072Z,0.23
2022-11-19T22:22:45.232Z,0.22
2022-11-19T22:25:17.745Z,0.22
2022-11-19T22:27:49.904Z,0.26
2022-11-19T22:30:22.194Z,0.25
2022-11-19T22:32:56.680Z,0.25
2022-11-19T22:35:29.017Z,0.27
2022-11-19T22:38:01.220Z,0.27
2022-11-19T22:40:33.710Z,0.32
2022-11-19T22:43:05.850Z,0.30
2022-11-19T22:45:38.335Z,0.31
2022-11-19T22:48:11.291Z,0.32
2022-11-19T22:50:44.180Z,0.31
2022-11-19T22:53:17.375Z,0.37
2022-11-19T22:55:49.513Z,0.38
2022-11-19T22:58:21.991Z,0.39
2022-11-19T23:00:54.613Z,0.35
2022-11-19T23:03:26.853Z,0.33
2022-11-19T23:05:59.282Z,0.42
2022-11-19T23:08:31.475Z,0.47
2022-11-19T23:11:05.717Z,0.43
2022-11-19T23:13:42.629Z,0.43
2022-11-19T23:16:16.653Z,0.45
2022-11-19T23:18:54.159Z,0.53
2022-11-19T23:21:28.548Z,0.56
2022-11-19T23:24:01.239Z,0.51
2022-11-19T23:26:36.466Z,0.53
2022-11-19T23:29:09.321Z,0.52
2022-11-19T23:31:45.856Z,0.53
2022-11-19T23:34:20.472Z,0.53
2022-11-19T23:36:54.007Z,0.53
2022-11-19T23:39:26.218Z,0.53
2022-11-19T23:41:58.348Z,0.57
2022-11-19T23:44:30.722Z,0.55
2022-11-19T23:47:04.522Z,0.51
2022-11-19T23:49:36.785Z,0.43
2022-11-19T23:52:09.241Z,0.44
2022-11-19T23:54:41.412Z,0.48
2022-11-19T23:57:13.516Z,0.52
2022-11-19T23:59:45.647Z,0.51
